createdAt,value
2022-07-28T00:01:05.653Z,13.80
2022-07-28T00:10:53.998Z,15.30
2022-07-28T00:13:20.774Z,14.10
2022-07-28T00:18:14.601Z,14.10
2022-07-28T00:30:30.619Z,16.50
2022-07-28T00:32:57.439Z,13.80
2022-07-28T00:35:30.276Z,16.50
2022-07-28T00:37:59.718Z,16.50
2022-07-28T00:43:14.745Z,14.80
2022-07-28T00:50:38.963Z,16.30
2022-07-28T00:53:06.716Z,14.80
2022-07-28T00:56:03.299Z,13.30
2022-07-28T00:58:22.207Z,13.20
2022-07-28T01:06:16.700Z,13.10
2022-07-28T01:09:01.258Z,13.00
2022-07-28T01:11:46.975Z,14.40
2022-07-28T01:14:23.616Z,14.50
2022-07-28T01:17:09.015Z,14.80
2022-07-28T01:22:17.178Z,14.40
2022-07-28T01:24:49.930Z,14.30
2022-07-28T01:27:43.227Z,14.20
2022-07-28T01:30:33.950Z,14.20
2022-07-28T01:35:54.204Z,14.20
2022-07-28T01:38:23.792Z,12.70
2022-07-28T01:40:52.872Z,14.10
2022-07-28T01:43:24.322Z,12.90
2022-07-28T01:45:51.768Z,14.20
2022-07-28T01:50:48.590Z,14.10
2022-07-28T01:53:17.623Z,13.90
2022-07-28T01:55:46.229Z,13.90
2022-07-28T01:58:18.861Z,14.00
2022-07-28T02:03:18.771Z,13.90
2022-07-28T02:05:50.203Z,13.90
2022-07-28T02:08:20.329Z,13.80
2022-07-28T02:11:09.181Z,13.00
2022-07-28T02:13:38.051Z,13.90
2022-07-28T02:21:02.538Z,14.00
2022-07-28T02:23:29.756Z,15.00
2022-07-28T02:25:58.709Z,14.00
2022-07-28T02:28:27.982Z,14.00
2022-07-28T02:36:17.170Z,14.00
2022-07-28T02:38:47.033Z,14.60
2022-07-28T02:46:27.159Z,14.00
2022-07-28T02:51:29.723Z,12.80
2022-07-28T02:56:26.270Z,14.00
2022-07-28T03:01:22.955Z,15.30
2022-07-28T03:06:28.399Z,13.90
2022-07-28T03:11:23.061Z,14.80
2022-07-28T03:33:35.124Z,14.90
2022-07-28T03:36:07.045Z,13.70
2022-07-28T03:41:03.862Z,13.80
2022-07-28T03:48:32.850Z,13.70
2022-07-28T03:53:28.480Z,13.80
2022-07-28T03:55:55.957Z,14.00
2022-07-28T04:00:56.405Z,12.70
2022-07-28T04:06:12.847Z,15.10
2022-07-28T04:18:31.804Z,15.00
2022-07-28T04:38:08.639Z,15.70
2022-07-28T04:45:30.947Z,15.10
2022-07-28T04:55:28.060Z,14.70
2022-07-28T05:15:09.477Z,14.90
2022-07-28T05:22:46.354Z,17.20
2022-07-28T05:25:14.759Z,18.00
2022-07-28T05:30:10.046Z,15.80
2022-07-28T05:32:37.454Z,16.20
2022-07-28T05:35:05.191Z,17.50
2022-07-28T05:37:35.819Z,16.70
2022-07-28T05:40:08.414Z,16.50
2022-07-28T05:45:16.495Z,16.70
2022-07-28T05:47:52.525Z,16.50
2022-07-28T05:50:21.622Z,17.10
2022-07-28T05:52:49.291Z,17.10
2022-07-28T05:55:16.197Z,18.80
2022-07-28T06:00:18.677Z,17.70
2022-07-28T06:02:47.341Z,18.00
2022-07-28T06:10:16.651Z,17.70
2022-07-28T06:12:54.786Z,18.70
2022-07-28T06:15:24.049Z,18.80
2022-07-28T06:17:55.347Z,18.90
2022-07-28T06:20:23.671Z,18.90
2022-07-28T06:22:52.601Z,17.70
2022-07-28T06:25:27.768Z,17.70
2022-07-28T06:27:56.316Z,19.60
2022-07-28T06:30:23.969Z,18.50
2022-07-28T06:35:22.156Z,19.50
2022-07-28T06:37:50.638Z,20.60
2022-07-28T06:40:19.081Z,19.70
2022-07-28T06:42:46.620Z,19.80
2022-07-28T06:45:21.338Z,20.10
2022-07-28T06:47:52.500Z,20.30
2022-07-28T06:50:25.800Z,19.10
2022-07-28T06:52:59.089Z,18.80
2022-07-28T06:58:03.729Z,22.20
2022-07-28T07:00:30.752Z,20.70
2022-07-28T07:07:52.791Z,21.30
2022-07-28T07:10:19.540Z,22.40
2022-07-28T07:12:46.268Z,23.40
2022-07-28T07:15:13.029Z,22.50
2022-07-28T07:17:39.812Z,23.70
2022-07-28T07:20:07.508Z,25.50
2022-07-28T07:25:13.804Z,27.50
2022-07-28T07:30:09.028Z,27.60
2022-07-28T07:32:36.269Z,27.00
2022-07-28T07:35:03.414Z,26.70
2022-07-28T07:37:32.513Z,27.30
2022-07-28T07:40:00.485Z,27.50
2022-07-28T07:44:54.839Z,28.30
2022-07-28T07:47:21.765Z,26.60
2022-07-28T07:49:48.580Z,28.00
2022-07-28T07:52:15.775Z,27.90
2022-07-28T07:59:37.696Z,29.60
2022-07-28T08:02:04.806Z,29.80
2022-07-28T08:04:31.654Z,30.10
2022-07-28T08:07:04.942Z,30.50
2022-07-28T08:14:27.011Z,31.00
2022-07-28T08:19:23.227Z,32.50
2022-07-28T08:21:50.595Z,31.70
2022-07-28T08:24:27.622Z,31.40
2022-07-28T08:29:27.889Z,33.10
2022-07-28T08:31:54.622Z,34.60
2022-07-28T08:34:26.365Z,34.10
2022-07-28T08:36:59.395Z,35.10
2022-07-28T08:39:26.069Z,33.70
2022-07-28T08:42:18.439Z,34.40
2022-07-28T08:44:55.026Z,33.00
2022-07-28T08:47:22.175Z,33.30
2022-07-28T08:49:51.740Z,33.40
2022-07-28T08:52:21.506Z,33.20
2022-07-28T08:54:49.836Z,34.20
2022-07-28T08:57:28.176Z,33.80
2022-07-28T08:59:55.778Z,34.10
2022-07-28T09:02:26.843Z,35.30
2022-07-28T09:04:55.259Z,35.70
2022-07-28T09:07:23.918Z,35.80
2022-07-28T09:09:51.093Z,35.50
2022-07-28T09:12:27.164Z,35.40
2022-07-28T09:14:54.598Z,34.30
2022-07-28T09:19:48.512Z,34.50
2022-07-28T09:22:15.239Z,34.70
2022-07-28T09:24:44.483Z,35.90
2022-07-28T09:27:11.953Z,36.70
2022-07-28T09:29:40.735Z,35.40
2022-07-28T09:32:08.355Z,34.60
2022-07-28T09:34:42.834Z,37.00
2022-07-28T09:37:27.840Z,36.20
2022-07-28T09:39:59.587Z,36.40
2022-07-28T09:42:44.307Z,34.50
2022-07-28T09:45:26.495Z,35.00
2022-07-28T09:48:13.837Z,35.50
2022-07-28T09:50:41.816Z,35.10
2022-07-28T09:53:22.809Z,35.40
2022-07-28T09:55:55.687Z,33.60
2022-07-28T09:58:22.519Z,33.90
2022-07-28T10:01:03.160Z,34.10
2022-07-28T10:03:30.721Z,33.10
2022-07-28T10:05:59.074Z,33.00
2022-07-28T10:08:43.468Z,32.80
2022-07-28T10:11:11.693Z,35.10
2022-07-28T10:13:55.040Z,36.90
2022-07-28T10:16:23.578Z,37.40
2022-07-28T10:18:50.593Z,36.30
2022-07-28T10:21:18.800Z,35.90
2022-07-28T10:24:04.468Z,36.90
2022-07-28T10:26:39.061Z,37.50
2022-07-28T10:29:09.949Z,36.30
2022-07-28T10:31:55.124Z,38.10
2022-07-28T10:34:40.638Z,37.30
2022-07-28T10:37:18.940Z,37.00
2022-07-28T10:39:55.525Z,38.20
2022-07-28T10:42:22.620Z,37.40
2022-07-28T10:44:51.081Z,37.80
2022-07-28T10:47:20.195Z,37.70
2022-07-28T10:49:48.885Z,37.10
2022-07-28T10:52:37.682Z,37.10
2022-07-28T10:55:26.417Z,38.20
2022-07-28T10:58:36.676Z,39.00
2022-07-28T11:01:06.313Z,39.40
2022-07-28T11:03:38.408Z,38.00
2022-07-28T11:06:27.207Z,38.70
2022-07-28T11:08:55.593Z,39.50
2022-07-28T11:11:54.211Z,40.00
2022-07-28T11:14:24.692Z,39.30
2022-07-28T11:17:14.784Z,38.70
2022-07-28T11:20:16.810Z,38.60
2022-07-28T11:22:33.404Z,36.60
2022-07-28T11:25:01.089Z,37.50
2022-07-28T11:27:50.879Z,37.70
2022-07-28T11:30:33.611Z,37.90
2022-07-28T11:33:01.796Z,40.40
2022-07-28T11:35:30.062Z,38.80
2022-07-28T11:38:02.751Z,38.70
2022-07-28T11:40:30.047Z,39.20
2022-07-28T11:43:22.238Z,37.70
2022-07-28T11:46:12.405Z,38.90
2022-07-28T11:48:41.719Z,38.90
2022-07-28T11:51:10.853Z,39.00
2022-07-28T11:53:52.813Z,39.20
2022-07-28T11:56:24.502Z,37.70
2022-07-28T11:59:07.765Z,37.80
2022-07-28T12:01:38.241Z,38.90
2022-07-28T12:04:12.059Z,39.30
2022-07-28T12:06:42.490Z,39.00
2022-07-28T12:09:11.218Z,41.20
2022-07-28T12:11:42.195Z,39.40
2022-07-28T12:14:11.707Z,40.40
2022-07-28T12:16:40.973Z,40.50
2022-07-28T12:19:08.846Z,40.60
2022-07-28T12:21:37.431Z,41.00
2022-07-28T12:24:45.970Z,40.40
2022-07-28T12:27:14.939Z,38.90
2022-07-28T12:29:42.159Z,41.90
2022-07-28T12:32:12.130Z,37.40
2022-07-28T12:34:40.467Z,35.40
2022-07-28T12:37:09.708Z,36.90
2022-07-28T12:39:39.618Z,35.50
2022-07-28T12:42:09.428Z,35.50
2022-07-28T12:45:07.569Z,36.50
2022-07-28T12:47:34.548Z,37.90
2022-07-28T12:50:15.862Z,38.50
2022-07-28T12:53:05.603Z,40.20
2022-07-28T12:55:32.492Z,39.40
2022-07-28T12:57:59.678Z,39.80
2022-07-28T13:00:35.048Z,39.50
2022-07-28T13:03:22.023Z,39.80
2022-07-28T13:06:03.777Z,40.40
2022-07-28T13:08:45.287Z,40.60
2022-07-28T13:11:42.106Z,40.90
2022-07-28T13:14:01.485Z,39.00
2022-07-28T13:16:29.798Z,42.10
2022-07-28T13:18:59.335Z,39.50
2022-07-28T13:21:58.653Z,38.20
2022-07-28T13:24:27.302Z,38.20
2022-07-28T13:26:53.992Z,37.20
2022-07-28T13:29:21.601Z,38.60
2022-07-28T13:31:48.973Z,40.20
2022-07-28T13:34:16.689Z,39.90
2022-07-28T13:36:43.880Z,41.40
2022-07-28T13:39:10.835Z,41.30
2022-07-28T13:41:56.412Z,39.90
2022-07-28T13:44:25.631Z,39.90
2022-07-28T13:46:53.142Z,39.20
2022-07-28T13:49:22.761Z,39.70
2022-07-28T13:51:51.154Z,38.80
2022-07-28T13:54:19.307Z,38.40
2022-07-28T13:56:47.177Z,38.90
2022-07-28T13:59:13.923Z,37.60
2022-07-28T14:01:42.478Z,37.50
2022-07-28T14:04:16.693Z,35.60
2022-07-28T14:06:45.201Z,33.50
2022-07-28T14:09:13.629Z,34.30
2022-07-28T14:11:49.901Z,35.20
2022-07-28T14:14:23.939Z,33.40
2022-07-28T14:16:52.578Z,32.90
2022-07-28T14:19:23.109Z,34.10
2022-07-28T14:21:55.216Z,32.70
2022-07-28T14:24:21.986Z,32.90
2022-07-28T14:26:48.815Z,33.30
2022-07-28T14:29:16.267Z,31.50
2022-07-28T14:36:37.772Z,31.80
2022-07-28T14:39:09.163Z,31.00
2022-07-28T14:41:39.092Z,31.80
2022-07-28T14:46:41.772Z,30.60
2022-07-28T14:51:40.391Z,30.30
2022-07-28T14:54:09.634Z,31.20
2022-07-28T14:56:36.836Z,29.60
2022-07-28T14:59:03.563Z,31.30
2022-07-28T15:01:35.613Z,29.40
2022-07-28T15:04:03.487Z,28.90
2022-07-28T15:06:30.360Z,29.70
2022-07-28T15:08:58.249Z,28.50
2022-07-28T15:11:25.622Z,28.70
2022-07-28T15:13:52.297Z,29.60
2022-07-28T15:18:46.323Z,27.90
2022-07-28T15:21:16.455Z,29.00
2022-07-28T15:23:43.995Z,29.30
2022-07-28T15:26:11.348Z,26.60
2022-07-28T15:28:39.055Z,27.40
2022-07-28T15:33:41.128Z,27.40
2022-07-28T15:38:42.043Z,28.90
2022-07-28T15:43:42.269Z,28.40
2022-07-28T15:46:11.171Z,26.90
2022-07-28T15:48:43.813Z,28.30
2022-07-28T15:51:11.104Z,28.70
2022-07-28T15:53:38.625Z,26.30
2022-07-28T15:58:35.588Z,26.60
2022-07-28T16:01:02.362Z,28.70
2022-07-28T16:03:30.117Z,28.90
2022-07-28T16:05:56.999Z,26.30
2022-07-28T16:08:23.872Z,26.30
2022-07-28T16:10:52.589Z,26.00
2022-07-28T16:13:36.805Z,27.70
2022-07-28T16:16:12.813Z,28.40
2022-07-28T16:18:42.394Z,25.90
2022-07-28T16:21:10.610Z,27.80
2022-07-28T16:26:07.562Z,27.20
2022-07-28T16:33:33.498Z,28.10
2022-07-28T16:36:01.502Z,26.70
2022-07-28T16:43:23.780Z,27.80
2022-07-28T16:53:14.750Z,27.50
2022-07-28T16:55:45.341Z,25.30
2022-07-28T17:00:39.181Z,25.80
2022-07-28T17:03:05.860Z,24.60
2022-07-28T17:05:33.875Z,26.20
2022-07-28T17:08:00.560Z,27.20
2022-07-28T17:15:23.071Z,26.70
2022-07-28T17:17:51.408Z,25.60
2022-07-28T17:28:04.506Z,25.70
2022-07-28T17:30:32.984Z,26.40
2022-07-28T17:33:08.377Z,25.40
2022-07-28T17:35:35.988Z,27.10
2022-07-28T17:38:07.216Z,26.30
2022-07-28T17:40:34.544Z,26.60
2022-07-28T17:43:01.274Z,25.70
2022-07-28T17:47:55.152Z,25.50
2022-07-28T17:50:21.964Z,24.20
2022-07-28T17:58:28.691Z,23.50
2022-07-28T18:01:09.724Z,23.10
2022-07-28T18:03:57.550Z,24.40
2022-07-28T18:06:33.749Z,25.60
2022-07-28T18:09:10.498Z,25.90
2022-07-28T18:11:56.669Z,24.20
2022-07-28T18:14:29.808Z,24.20
2022-07-28T18:16:57.689Z,25.60
2022-07-28T18:21:52.034Z,24.90
2022-07-28T18:24:21.562Z,25.40
2022-07-28T18:26:49.974Z,23.80
2022-07-28T18:29:17.652Z,22.60
2022-07-28T18:31:47.442Z,22.20
2022-07-28T18:34:15.598Z,23.40
2022-07-28T18:36:42.617Z,23.30
2022-07-28T18:39:09.463Z,22.10
2022-07-28T18:44:16.721Z,24.50
2022-07-28T18:46:44.123Z,24.50
2022-07-28T18:51:50.225Z,21.50
2022-07-28T18:54:27.617Z,22.60
2022-07-28T18:56:55.378Z,22.70
2022-07-28T18:59:22.881Z,21.80
2022-07-28T19:04:17.480Z,22.40
2022-07-28T19:09:11.698Z,21.30
2022-07-28T19:14:13.425Z,20.80
2022-07-28T19:19:16.042Z,21.90
2022-07-28T19:21:43.291Z,20.50
2022-07-28T19:26:40.032Z,22.60
2022-07-28T19:29:06.961Z,20.40
2022-07-28T19:31:33.971Z,21.50
2022-07-28T19:34:00.958Z,20.10
2022-07-28T19:36:33.411Z,20.50
2022-07-28T19:41:31.568Z,19.90
2022-07-28T19:43:58.377Z,21.60
2022-07-28T19:48:54.453Z,21.80
2022-07-28T19:56:15.530Z,19.60
2022-07-28T20:08:54.857Z,20.40
2022-07-28T20:11:23.886Z,20.00
2022-07-28T20:13:50.689Z,19.20
2022-07-28T20:16:17.916Z,21.20
2022-07-28T20:28:37.737Z,19.60
2022-07-28T20:31:07.626Z,21.70
2022-07-28T20:33:34.564Z,21.50
2022-07-28T20:36:01.278Z,19.00
2022-07-28T20:38:27.980Z,21.40
2022-07-28T20:45:48.959Z,21.30
2022-07-28T21:00:34.509Z,21.40
2022-07-28T21:08:09.215Z,21.00
2022-07-28T21:17:59.140Z,20.00
2022-07-28T21:25:20.525Z,19.60
2022-07-28T21:28:06.016Z,20.70
2022-07-28T21:37:54.324Z,18.50
2022-07-28T21:45:15.378Z,17.90
2022-07-28T21:47:42.261Z,20.20
2022-07-28T21:50:09.845Z,22.10
2022-07-28T21:52:37.261Z,18.00
2022-07-28T21:55:06.002Z,20.50
2022-07-28T21:57:32.776Z,20.40
2022-07-28T22:09:48.263Z,18.10
2022-07-28T22:12:15.074Z,19.00
2022-07-28T22:36:54.881Z,17.20
2022-07-28T22:39:22.068Z,18.60
2022-07-28T22:41:48.929Z,20.00
2022-07-28T22:44:15.993Z,17.50
2022-07-28T22:46:43.203Z,20.00
2022-07-28T23:01:31.753Z,18.70
2022-07-28T23:03:58.682Z,18.50
2022-07-28T23:16:16.920Z,16.60
2022-07-28T23:18:44.362Z,18.00
2022-07-28T23:21:12.303Z,17.90
2022-07-28T23:23:39.151Z,19.40
2022-07-28T23:31:03.945Z,18.60
2022-07-28T23:33:56.730Z,19.30
2022-07-28T23:38:55.265Z,17.80
2022-07-28T23:41:22.017Z,16.80
2022-07-28T23:43:48.984Z,18.20
2022-07-28T23:46:15.816Z,17.80
2022-07-28T23:48:42.730Z,19.00
2022-07-28T23:53:38.425Z,16.50
2022-07-28T23:56:05.650Z,16.40
2022-07-28T23:58:32.551Z,16.90
